Time;durP1;ratioP1;P1;durP2;ratioP2;P2;SDS_P1;SDS_P2;PMS_P1;PMS_P2;Temp;Humidity;BMP_temperature;BMP_pressure;BME280_temperature;BME280_humidity;BME280_pressure;Samples;Min_cycle;Max_cycle;Signal;HPM_P1;HPM_P2
2023/12/02 00:00:14;;;;;;;2.10;1.83;;;;;;;-141.23;100.00;62281.09;5064169;27;20148;-75
2023/12/02 00:02:41;;;;;;;5.10;3.17;;;;;;;-141.23;100.00;62281.09;5097641;27;20046;-75
2023/12/02 00:05:07;;;;;;;2.43;2.23;;;;;;;-141.23;100.00;62281.09;5080281;27;20544;-75
2023/12/02 00:07:33;;;;;;;8.13;3.27;;;;;;;-141.23;100.00;62281.09;5063609;27;20061;-74
2023/12/02 00:09:59;;;;;;;4.40;3.03;;;;;;;-141.23;100.00;62281.09;5080010;27;20486;-74
2023/12/02 00:12:25;;;;;;;4.73;2.50;;;;;;;-141.23;100.00;62281.09;5063554;27;20047;-74
2023/12/02 00:14:51;;;;;;;4.43;3.60;;;;;;;-141.23;100.00;62281.09;5076520;28;20062;-74
2023/12/02 00:17:17;;;;;;;3.53;3.23;;;;;;;-141.23;100.00;62281.09;5093615;28;20054;-74
2023/12/02 00:19:43;;;;;;;1.50;1.40;;;;;;;-141.23;100.00;62281.09;5076692;28;20064;-74
2023/12/02 00:22:09;;;;;;;4.33;2.67;;;;;;;-141.23;100.00;62281.09;5076868;28;20055;-75
2023/12/02 00:24:35;;;;;;;3.43;2.17;;;;;;;-141.23;100.00;62281.09;5059817;28;20571;-74
2023/12/02 00:27:01;;;;;;;7.13;4.03;;;;;;;-141.23;100.00;62281.09;5076595;28;20441;-76
2023/12/02 00:29:29;;;;;;;2.60;2.37;;;;;;;-141.23;100.00;62281.09;5052872;28;20057;-76
2023/12/02 00:31:56;;;;;;;6.23;3.77;;;;;;;-141.23;100.00;62281.09;5032704;28;20476;-76
2023/12/02 00:34:23;;;;;;;4.07;3.47;;;;;;;-141.23;100.00;62281.09;5029824;28;20061;-75
2023/12/02 00:36:49;;;;;;;4.70;2.30;;;;;;;-141.23;100.00;62281.09;4980736;28;20045;-75
2023/12/02 00:39:15;;;;;;;2.70;2.50;;;;;;;-141.23;100.00;62281.09;4980747;28;20053;-76
2023/12/02 00:41:41;;;;;;;3.17;2.63;;;;;;;-141.23;100.00;62281.09;4964975;28;20061;-75
2023/12/02 00:44:07;;;;;;;5.33;3.23;;;;;;;-141.23;100.00;62281.09;4980565;28;20152;-77
2023/12/02 00:46:33;;;;;;;3.37;1.87;;;;;;;-141.23;100.00;62281.09;4980285;28;20188;-77
2023/12/02 00:48:59;;;;;;;3.30;2.77;;;;;;;-141.23;100.00;62281.09;4996543;28;20050;-75
2023/12/02 00:51:24;;;;;;;2.87;2.13;;;;;;;-141.23;100.00;62281.09;5013390;28;20063;-76
2023/12/02 00:53:51;;;;;;;6.27;4.57;;;;;;;-141.23;100.00;62281.09;4980669;28;20061;-76
2023/12/02 00:56:17;;;;;;;7.20;4.07;;;;;;;-141.23;100.00;62281.09;5013290;28;20098;-75
2023/12/02 00:58:43;;;;;;;4.57;3.90;;;;;;;-141.23;100.00;62281.09;4997405;28;20057;-74
2023/12/02 01:01:11;;;;;;;5.40;3.80;;;;;;;-141.23;100.00;62281.09;5049019;28;20534;-75
2023/12/02 01:03:36;;;;;;;6.63;4.43;;;;;;;-141.23;100.00;62281.09;5059205;28;20063;-75
2023/12/02 01:06:03;;;;;;;3.07;1.90;;;;;;;-141.23;100.00;62281.09;5063620;28;20109;-75
2023/12/02 01:08:30;;;;;;;5.90;4.00;;;;;;;-141.23;100.00;62281.09;5080301;28;20055;-76
2023/12/02 01:10:56;;;;;;;2.60;2.40;;;;;;;-141.23;100.00;62281.09;5096788;28;20051;-76
2023/12/02 01:13:22;;;;;;;3.37;2.50;;;;;;;-141.23;100.00;62281.09;5063267;28;20052;-74
2023/12/02 01:15:48;;;;;;;2.83;2.10;;;;;;;-141.23;100.00;62281.09;5063375;28;20532;-74
2023/12/02 01:18:14;;;;;;;3.77;2.47;;;;;;;-141.23;100.00;62281.09;5097116;28;20156;-74
2023/12/02 01:20:40;;;;;;;6.27;3.90;;;;;;;-141.23;100.00;62281.09;5063967;28;20044;-74
2023/12/02 01:23:05;;;;;;;4.30;2.37;;;;;;;-141.23;100.00;62281.09;5059740;28;20506;-74
2023/12/02 01:25:31;;;;;;;3.97;2.27;;;;;;;-141.23;100.00;62281.09;5076411;28;20229;-74
2023/12/02 01:27:58;;;;;;;4.17;2.73;;;;;;;-141.23;100.00;62281.09;5042878;28;20048;-75
2023/12/02 01:30:24;;;;;;;2.33;1.97;;;;;;;-141.23;100.00;62281.09;5059595;28;20040;-75
2023/12/02 01:32:50;;;;;;;4.83;3.00;;;;;;;-141.23;100.00;62281.09;5059412;28;20131;-75
2023/12/02 01:35:17;;;;;;;9.00;3.67;;;;;;;-141.23;100.00;62281.09;5059587;28;20509;-76
2023/12/02 01:37:43;;;;;;;3.87;3.37;;;;;;;-141.23;100.00;62281.09;5076336;28;20503;-74
2023/12/02 01:40:11;;;;;;;6.23;4.33;;;;;;;-141.23;100.00;62281.09;5059451;28;20064;-76
2023/12/02 01:42:36;;;;;;;4.63;3.70;;;;;;;-141.23;100.00;62281.09;5049209;27;20051;-74
2023/12/02 01:45:03;;;;;;;4.30;3.60;;;;;;;-141.23;100.00;62281.09;5082899;27;20078;-77
2023/12/02 01:47:31;;;;;;;3.30;3.00;;;;;;;-141.23;100.00;62281.09;5083300;27;20039;-75
2023/12/02 01:50:00;;;;;;;5.03;4.20;;;;;;;-141.23;100.00;62281.09;5099588;27;20155;-75
2023/12/02 01:52:26;;;;;;;2.60;2.00;;;;;;;-141.23;100.00;62281.09;5082979;27;20112;-74
2023/12/02 01:54:54;;;;;;;7.60;3.33;;;;;;;-141.23;100.00;62281.09;5114598;27;20039;-76
2023/12/02 01:57:20;;;;;;;3.37;1.97;;;;;;;-141.23;100.00;62281.09;5100731;27;20043;-75
2023/12/02 01:59:53;;;;;;;3.70;3.07;;;;;;;-141.23;100.00;62281.09;5101042;27;20070;-76
2023/12/02 02:02:19;;;;;;;6.33;4.73;;;;;;;-141.23;100.00;62281.09;5084014;27;20448;-75
2023/12/02 02:04:46;;;;;;;9.33;5.87;;;;;;;-141.23;100.00;62281.09;5100847;27;20100;-75
2023/12/02 02:07:12;;;;;;;4.50;2.97;;;;;;;-141.23;100.00;62281.09;5100434;27;20050;-74
2023/12/02 02:09:48;;;;;;;5.93;3.20;;;;;;;-141.23;100.00;62281.09;5100502;27;20050;-75
2023/12/02 02:12:15;;;;;;;5.83;3.93;;;;;;;-141.23;100.00;62281.09;5100479;27;20035;-75
2023/12/02 02:14:44;;;;;;;5.60;3.77;;;;;;;-141.23;100.00;62281.09;5101154;27;20081;-74
2023/12/02 02:17:10;;;;;;;3.20;2.10;;;;;;;-141.23;100.00;62281.09;5100478;27;20071;-75
2023/12/02 02:19:37;;;;;;;5.17;4.27;;;;;;;-141.23;100.00;62281.09;5099986;27;20077;-75
2023/12/02 02:22:04;;;;;;;2.27;2.07;;;;;;;-141.23;100.00;62281.09;5100276;27;20115;-75
2023/12/02 02:24:31;;;;;;;8.33;3.60;;;;;;;-141.23;100.00;62281.09;5100600;27;20470;-75
2023/12/02 02:26:57;;;;;;;2.93;2.30;;;;;;;-141.23;100.00;62281.09;5100305;27;20100;-75
2023/12/02 02:29:23;;;;;;;8.50;5.57;;;;;;;-141.23;100.00;62281.09;5100176;27;20043;-76
2023/12/02 02:31:49;;;;;;;2.50;2.20;;;;;;;-141.23;100.00;62281.09;5099648;27;20051;-75
2023/12/02 02:34:16;;;;;;;6.87;3.63;;;;;;;-141.23;100.00;62281.09;5100255;27;20432;-74
2023/12/02 02:36:43;;;;;;;3.27;2.60;;;;;;;-141.23;100.00;62281.09;5099695;27;20343;-74
2023/12/02 02:39:10;;;;;;;6.10;3.83;;;;;;;-141.23;100.00;62281.09;5116546;27;20080;-74
2023/12/02 02:41:36;;;;;;;6.37;4.43;;;;;;;-141.23;100.00;62281.09;5099674;27;20098;-73
2023/12/02 02:44:02;;;;;;;3.43;3.13;;;;;;;-141.23;100.00;62281.09;5099494;27;20043;-73
2023/12/02 02:46:28;;;;;;;5.13;2.80;;;;;;;-141.23;100.00;62281.09;5099643;27;20432;-75
2023/12/02 02:48:54;;;;;;;5.10;4.17;;;;;;;-141.23;100.00;62281.09;5078093;28;20051;-74
2023/12/02 02:51:20;;;;;;;4.70;1.97;;;;;;;-141.23;100.00;62281.09;5078218;28;20043;-75
2023/12/02 02:53:46;;;;;;;4.60;2.43;;;;;;;-141.23;100.00;62281.09;5078304;28;20108;-75
2023/12/02 02:56:11;;;;;;;7.47;3.93;;;;;;;-141.23;100.00;62281.09;5095052;28;20415;-75
2023/12/02 02:58:37;;;;;;;7.27;3.17;;;;;;;-141.23;100.00;62281.09;5094671;28;20146;-74
2023/12/02 03:01:03;;;;;;;17.97;6.63;;;;;;;-141.23;100.00;62281.09;5094814;28;20448;-75
2023/12/02 03:03:29;;;;;;;7.33;4.70;;;;;;;-141.23;100.00;62281.09;5077945;28;20059;-75
2023/12/02 03:05:55;;;;;;;10.03;5.30;;;;;;;-141.23;100.00;62281.09;5111825;28;20088;-75
2023/12/02 03:08:23;;;;;;;4.73;3.20;;;;;;;-141.23;100.00;62281.09;5077836;28;20043;-75
2023/12/02 03:10:49;;;;;;;4.73;3.50;;;;;;;-141.23;100.00;62281.09;5094892;28;20065;-74
2023/12/02 03:13:16;;;;;;;4.33;3.17;;;;;;;-141.23;100.00;62281.09;5094601;28;20162;-75
2023/12/02 03:15:42;;;;;;;11.70;5.87;;;;;;;-141.23;100.00;62281.09;5094555;28;20466;-75
2023/12/02 03:18:08;;;;;;;9.63;3.90;;;;;;;-141.23;100.00;62281.09;5094528;28;20039;-75
2023/12/02 03:20:34;;;;;;;6.47;4.07;;;;;;;-141.23;100.00;62281.09;5128619;27;20514;-75
2023/12/02 03:23:00;;;;;;;6.70;4.27;;;;;;;-141.23;100.00;62281.09;5098815;27;20039;-74
2023/12/02 03:25:26;;;;;;;5.30;4.73;;;;;;;-141.23;100.00;62281.09;5081981;27;20133;-75
2023/12/02 03:27:52;;;;;;;6.97;3.50;;;;;;;-141.23;100.00;62281.09;5098789;27;20054;-75
2023/12/02 03:30:18;;;;;;;8.93;4.37;;;;;;;-141.23;100.00;62281.09;5098948;27;20042;-74
2023/12/02 03:32:44;;;;;;;6.77;3.50;;;;;;;-141.23;100.00;62281.09;5056903;28;20152;-75
2023/12/02 03:35:10;;;;;;;7.03;4.13;;;;;;;-141.23;100.00;62281.09;5073904;28;20044;-75
2023/12/02 03:37:37;;;;;;;7.77;2.20;;;;;;;-141.23;100.00;62281.09;5040643;28;20513;-75
2023/12/02 03:40:05;;;;;;;10.30;6.43;;;;;;;-141.23;100.00;62281.09;5057075;28;20471;-75
2023/12/02 03:42:31;;;;;;;9.87;4.27;;;;;;;-141.23;100.00;62281.09;5073815;28;20055;-76
2023/12/02 03:44:59;;;;;;;5.20;4.50;;;;;;;-141.23;100.00;62281.09;5040794;28;20040;-75
2023/12/02 03:47:25;;;;;;;8.70;4.60;;;;;;;-141.23;100.00;62281.09;5057025;28;20043;-75
2023/12/02 03:49:51;;;;;;;13.87;6.73;;;;;;;-141.23;100.00;62281.09;5073930;28;20051;-75
2023/12/02 03:52:18;;;;;;;17.30;7.57;;;;;;;-141.23;100.00;62281.09;5057258;28;20593;-73
2023/12/02 03:54:44;;;;;;;8.20;5.23;;;;;;;-141.23;100.00;62281.09;5046812;28;20148;-74
2023/12/02 03:57:10;;;;;;;15.30;7.77;;;;;;;-141.23;100.00;62281.09;5013608;28;20061;-75
2023/12/02 03:59:40;;;;;;;4.83;2.60;;;;;;;-141.23;100.00;62281.09;5010292;28;20078;-75
2023/12/02 04:02:06;;;;;;;19.13;9.53;;;;;;;-141.23;100.00;62281.09;4994183;28;20053;-75
2023/12/02 04:04:32;;;;;;;5.90;4.00;;;;;;;-141.23;100.00;62281.09;5010706;28;20579;-76
2023/12/02 04:06:58;;;;;;;5.80;3.13;;;;;;;-141.23;100.00;62281.09;5033215;28;20147;-75
2023/12/02 04:09:24;;;;;;;13.43;6.97;;;;;;;-141.23;100.00;62281.09;5033517;28;20049;-74
2023/12/02 04:11:52;;;;;;;8.03;4.60;;;;;;;-141.23;100.00;62281.09;5000945;28;20053;-75
2023/12/02 04:14:30;;;;;;;10.83;5.40;;;;;;;-141.23;100.00;62281.09;5033717;28;20118;-76
2023/12/02 04:16:59;;;;;;;8.47;4.73;;;;;;;-141.23;100.00;62281.09;5032756;28;20103;-74
2023/12/02 04:19:27;;;;;;;7.35;3.13;;;;;;;-141.23;100.00;62281.09;5033042;28;20052;-75
2023/12/02 04:21:53;;;;;;;8.30;5.10;;;;;;;-141.23;100.00;62281.09;5050285;28;20053;-74
2023/12/02 04:24:19;;;;;;;2.80;2.00;;;;;;;-141.23;100.00;62281.09;5049653;28;20135;-74
2023/12/02 04:26:45;;;;;;;5.80;3.80;;;;;;;-141.23;100.00;62281.09;5034984;28;20059;-74
2023/12/02 04:29:11;;;;;;;10.53;5.33;;;;;;;-141.23;100.00;62281.09;5053144;28;20524;-74
2023/12/02 04:31:37;;;;;;;18.40;6.87;;;;;;;-141.23;100.00;62281.09;5052837;28;20045;-74
2023/12/02 04:34:05;;;;;;;13.13;4.67;;;;;;;-141.23;100.00;62281.09;5055804;28;20585;-75
2023/12/02 04:36:30;;;;;;;7.23;4.90;;;;;;;-141.23;100.00;62281.09;5021033;28;20057;-74
2023/12/02 04:38:57;;;;;;;7.33;2.90;;;;;;;-141.23;100.00;62281.09;5023544;28;20053;-75
2023/12/02 04:41:24;;;;;;;11.53;5.83;;;;;;;-141.23;100.00;62281.09;5023730;28;20118;-75
2023/12/02 04:43:50;;;;;;;10.00;5.47;;;;;;;-141.23;100.00;62281.09;5023158;28;20053;-74
2023/12/02 04:46:16;;;;;;;6.87;4.60;;;;;;;-141.23;100.00;62281.09;5025358;28;20055;-74
2023/12/02 04:48:42;;;;;;;4.93;3.90;;;;;;;-141.23;100.00;62281.09;5043488;28;20480;-75
2023/12/02 04:51:08;;;;;;;14.97;6.17;;;;;;;-141.23;100.00;62281.09;5044174;28;20048;-74
2023/12/02 04:53:34;;;;;;;6.73;5.30;;;;;;;-141.23;100.00;62281.09;5058651;28;20049;-73
2023/12/02 04:56:00;;;;;;;4.10;3.37;;;;;;;-141.23;100.00;62281.09;5041186;28;20072;-73
2023/12/02 04:58:27;;;;;;;6.73;5.33;;;;;;;-141.23;100.00;62281.09;5039747;28;20536;-75
2023/12/02 05:00:53;;;;;;;28.47;9.67;;;;;;;-141.23;100.00;62281.09;5039650;28;20575;-75
2023/12/02 05:03:19;;;;;;;4.63;4.13;;;;;;;-141.23;100.00;62281.09;5039570;28;20037;-74
2023/12/02 05:05:45;;;;;;;7.10;4.80;;;;;;;-141.23;100.00;62281.09;5039809;28;20048;-75
2023/12/02 05:08:15;;;;;;;6.30;4.47;;;;;;;-141.23;100.00;62281.09;5075310;28;20085;-75
2023/12/02 05:11:24;;;;;;;8.10;4.87;;;;;;;-141.23;100.00;62281.09;5116950;28;20047;-75
2023/12/02 05:13:51;;;;;;;7.53;3.80;;;;;;;-141.23;100.00;62281.09;5066639;28;20051;-75
2023/12/02 05:16:18;;;;;;;4.87;2.83;;;;;;;-141.23;100.00;62281.09;5066198;28;20035;-72
2023/12/02 05:18:45;;;;;;;7.57;4.23;;;;;;;-141.23;100.00;62281.09;5066638;28;20063;-71
2023/12/02 05:21:12;;;;;;;4.97;2.70;;;;;;;-141.23;100.00;62281.09;5082750;28;20059;-75
2023/12/02 05:23:41;;;;;;;6.90;3.83;;;;;;;-141.23;100.00;62281.09;5049614;28;20467;-79
2023/12/02 05:26:08;;;;;;;8.02;5.20;;;;;;;-141.23;100.00;62281.09;5083160;28;20523;-74
2023/12/02 05:28:34;;;;;;;5.70;3.53;;;;;;;-141.23;100.00;62281.09;5066131;28;20134;-77
2023/12/02 05:31:03;;;;;;;8.33;3.37;;;;;;;-141.23;100.00;62281.09;5083080;28;20134;-78
2023/12/02 05:33:31;;;;;;;5.20;3.30;;;;;;;-141.23;100.00;62281.09;5099430;28;20193;-74
2023/12/02 05:35:58;;;;;;;6.57;4.80;;;;;;;-141.23;100.00;62281.09;5066141;28;20047;-74
2023/12/02 05:38:25;;;;;;;13.30;5.97;;;;;;;-141.23;100.00;62281.09;5066743;28;20105;-75
2023/12/02 05:40:54;;;;;;;8.07;5.10;;;;;;;-141.23;100.00;62281.09;5066340;28;20043;-73
2023/12/02 05:43:22;;;;;;;6.53;5.07;;;;;;;-141.23;100.00;62281.09;5049379;28;20150;-74
2023/12/02 05:45:51;;;;;;;9.47;5.60;;;;;;;-141.23;100.00;62281.09;5096399;28;21079;-74
2023/12/02 05:48:18;;;;;;;12.10;6.47;;;;;;;-141.23;100.00;62281.09;5096286;28;20050;-75
2023/12/02 05:50:44;;;;;;;16.57;7.67;;;;;;;-141.23;100.00;62281.09;5062715;28;20047;-70
2023/12/02 05:53:10;;;;;;;7.83;5.33;;;;;;;-141.23;100.00;62281.09;5045817;28;20055;-71
2023/12/02 05:55:36;;;;;;;6.07;4.40;;;;;;;-141.23;100.00;62281.09;5042291;28;20052;-72
2023/12/02 05:58:02;;;;;;;9.87;4.80;;;;;;;-141.23;100.00;62281.09;5042605;28;20048;-77
2023/12/02 06:00:28;;;;;;;4.67;3.77;;;;;;;-141.23;100.00;62281.09;5082673;28;20096;-75
2023/12/02 06:02:54;;;;;;;4.03;3.07;;;;;;;-141.23;100.00;62281.09;5045788;28;20051;-78
2023/12/02 06:05:23;;;;;;;6.50;4.73;;;;;;;-141.23;100.00;62281.09;5046249;28;20063;-78
2023/12/02 06:07:52;;;;;;;4.40;3.37;;;;;;;-141.23;100.00;62281.09;5059215;28;20054;-77
2023/12/02 06:10:18;;;;;;;3.30;2.73;;;;;;;-141.23;100.00;62281.09;5002881;28;20056;-79
2023/12/02 06:12:45;;;;;;;9.47;4.63;;;;;;;-141.23;100.00;62281.09;5019277;28;20060;-78
2023/12/02 06:15:12;;;;;;;4.00;2.80;;;;;;;-141.23;100.00;62281.09;5035672;28;20136;-75
2023/12/02 06:17:38;;;;;;;6.57;4.43;;;;;;;-141.23;100.00;62281.09;5002798;28;20081;-77
2023/12/02 06:20:06;;;;;;;7.27;4.47;;;;;;;-141.23;100.00;62281.09;5035351;28;20067;-76
2023/12/02 06:22:33;;;;;;;2.33;2.13;;;;;;;-141.23;100.00;62281.09;5000712;28;20523;-79
2023/12/02 06:24:59;;;;;;;7.93;5.40;;;;;;;-141.23;100.00;62281.09;5016568;28;20049;-76
2023/12/02 06:27:25;;;;;;;10.23;5.63;;;;;;;-141.23;100.00;62281.09;5018555;28;20519;-75
2023/12/02 06:29:52;;;;;;;6.60;2.93;;;;;;;-141.23;100.00;62281.09;5000099;28;20056;-75
2023/12/02 06:32:20;;;;;;;9.63;5.57;;;;;;;-141.23;100.00;62281.09;5046024;28;20076;-77
2023/12/02 06:34:46;;;;;;;7.03;4.23;;;;;;;-141.23;100.00;62281.09;5053248;28;20103;-78
2023/12/02 06:37:12;;;;;;;5.20;3.27;;;;;;;-141.23;100.00;62281.09;5036728;28;20519;-77
2023/12/02 06:39:38;;;;;;;10.53;5.50;;;;;;;-141.23;100.00;62281.09;5036213;28;20044;-75
2023/12/02 06:42:04;;;;;;;9.07;4.17;;;;;;;-141.23;100.00;62281.09;5036268;28;20058;-74
2023/12/02 06:44:30;;;;;;;6.60;3.53;;;;;;;-141.23;100.00;62281.09;5065453;27;20051;-78
2023/12/02 06:46:57;;;;;;;7.40;4.43;;;;;;;-141.23;100.00;62281.09;5081846;27;20042;-77
2023/12/02 06:49:24;;;;;;;5.53;3.93;;;;;;;-141.23;100.00;62281.09;5098388;27;20367;-76
2023/12/02 06:51:50;;;;;;;8.83;4.93;;;;;;;-141.23;100.00;62281.09;5114981;27;20043;-77
2023/12/02 06:54:17;;;;;;;4.97;3.00;;;;;;;-141.23;100.00;62281.09;5098620;27;20134;-75
2023/12/02 06:56:45;;;;;;;8.73;4.63;;;;;;;-141.23;100.00;62281.09;5097873;27;20134;-75
2023/12/02 06:59:12;;;;;;;3.93;3.57;;;;;;;-141.23;100.00;62281.09;5098007;27;20081;-75
2023/12/02 07:01:38;;;;;;;4.80;2.63;;;;;;;-141.23;100.00;62281.09;5056127;28;20147;-76
2023/12/02 07:04:05;;;;;;;14.70;5.53;;;;;;;-141.23;100.00;62281.09;5056505;28;20142;-78
2023/12/02 07:06:31;;;;;;;13.07;5.50;;;;;;;-141.23;100.00;62281.09;5050165;28;20053;-74
2023/12/02 07:08:57;;;;;;;8.50;5.53;;;;;;;-141.23;100.00;62281.09;5033506;28;20386;-74
2023/12/02 07:11:23;;;;;;;5.90;3.03;;;;;;;-141.23;100.00;62281.09;5049184;28;20083;-77
2023/12/02 07:13:49;;;;;;;6.93;4.10;;;;;;;-141.23;100.00;62281.09;5032337;28;20041;-71
2023/12/02 07:16:16;;;;;;;6.77;3.77;;;;;;;-141.23;100.00;62281.09;5049807;28;20055;-73
2023/12/02 07:18:44;;;;;;;10.27;7.00;;;;;;;-141.23;100.00;62281.09;5032938;28;20151;-73
2023/12/02 07:21:09;;;;;;;8.47;4.17;;;;;;;-141.23;100.00;62281.09;5049359;28;20080;-73
2023/12/02 07:23:36;;;;;;;4.63;3.17;;;;;;;-141.23;100.00;62281.09;5049268;28;20051;-74
2023/12/02 07:26:05;;;;;;;14.07;6.33;;;;;;;-141.23;100.00;62281.09;5031975;28;20044;-73
2023/12/02 07:28:31;;;;;;;5.33;3.07;;;;;;;-141.23;100.00;62281.09;5029249;28;20476;-70
2023/12/02 07:30:57;;;;;;;14.07;5.77;;;;;;;-141.23;100.00;62281.09;5013268;28;20045;-73
2023/12/02 07:33:23;;;;;;;15.17;7.17;;;;;;;-141.23;100.00;62281.09;5028777;28;20068;-72
2023/12/02 07:35:49;;;;;;;4.47;2.53;;;;;;;-141.23;100.00;62281.09;5045494;28;20460;-72
2023/12/02 07:38:20;;;;;;;9.60;4.97;;;;;;;-141.23;100.00;62281.09;4977212;28;20536;-73
2023/12/02 07:40:46;;;;;;;7.43;5.10;;;;;;;-141.23;100.00;62281.09;4970307;28;20051;-75
2023/12/02 07:43:12;;;;;;;12.30;6.10;;;;;;;-141.23;100.00;62281.09;4954034;28;20458;-75
2023/12/02 07:45:38;;;;;;;8.07;4.60;;;;;;;-141.23;100.00;62281.09;4928863;29;20058;-74
2023/12/02 07:48:05;;;;;;;8.67;5.37;;;;;;;-141.23;100.00;62281.09;4919617;29;20459;-74
2023/12/02 07:50:33;;;;;;;9.00;4.00;;;;;;;-141.23;100.00;62281.09;4948201;28;20083;-77
2023/12/02 07:53:01;;;;;;;13.10;6.33;;;;;;;-141.23;100.00;62281.09;4931759;29;20059;-74
2023/12/02 07:55:31;;;;;;;10.43;5.80;;;;;;;-141.23;100.00;62281.09;4951184;29;20050;-80
2023/12/02 07:58:01;;;;;;;12.77;5.77;;;;;;;-141.23;100.00;62281.09;4966871;28;20067;-77
2023/12/02 08:00:33;;;;;;;7.87;5.13;;;;;;;-141.23;100.00;62281.09;4965973;28;20154;-77
2023/12/02 08:03:00;;;;;;;7.13;4.13;;;;;;;-141.23;100.00;62281.09;4951037;29;20142;-75
2023/12/02 08:05:28;;;;;;;9.50;5.67;;;;;;;-141.23;100.00;62281.09;4985035;28;20042;-73
2023/12/02 08:07:55;;;;;;;6.33;4.00;;;;;;;-141.23;100.00;62281.09;4985658;28;20035;-72
2023/12/02 08:10:25;;;;;;;7.03;4.40;;;;;;;-141.23;100.00;62281.09;5045113;28;20048;-73
2023/12/02 08:12:54;;;;;;;5.87;3.50;;;;;;;-141.23;100.00;62281.09;5067103;28;20086;-75
2023/12/02 08:15:28;;;;;;;12.83;4.57;;;;;;;-141.23;100.00;62281.09;5051185;28;20075;-74
2023/12/02 08:17:54;;;;;;;4.57;3.57;;;;;;;-141.23;100.00;62281.09;5012496;28;20052;-72
2023/12/02 08:20:20;;;;;;;9.53;3.57;;;;;;;-141.23;100.00;62281.09;5019120;28;20067;-74
2023/12/02 08:22:47;;;;;;;13.13;6.07;;;;;;;-141.23;100.00;62281.09;5018513;28;20425;-71
2023/12/02 08:25:18;;;;;;;23.77;7.83;;;;;;;-141.23;100.00;62281.09;5035368;28;20452;-72
2023/12/02 08:27:44;;;;;;;5.55;3.38;;;;;;;-141.23;100.00;62281.09;5035406;28;20052;-71
2023/12/02 08:30:11;;;;;;;5.27;3.73;;;;;;;-141.23;100.00;62281.09;5018472;28;20059;-72
2023/12/02 08:32:37;;;;;;;8.97;6.27;;;;;;;-141.23;100.00;62281.09;5018483;28;20052;-72
2023/12/02 08:35:04;;;;;;;5.60;4.47;;;;;;;-141.23;100.00;62281.09;5018698;28;20098;-71
2023/12/02 08:37:31;;;;;;;5.35;3.17;;;;;;;-141.23;100.00;62281.09;5018508;28;20053;-72
2023/12/02 08:39:57;;;;;;;3.33;2.42;;;;;;;-141.23;100.00;62281.09;5035125;28;20044;-74
2023/12/02 08:42:24;;;;;;;11.05;4.72;;;;;;;-141.23;100.00;62281.09;5017883;28;20049;-71
2023/12/02 08:44:51;;;;;;;12.55;4.75;;;;;;;-141.23;100.00;62281.09;5020777;28;20131;-71
2023/12/02 08:47:21;;;;;;;19.10;4.93;;;;;;;-141.23;100.00;62281.09;5058095;28;20104;-70
2023/12/02 08:49:48;;;;;;;24.70;6.18;;;;;;;-141.23;100.00;62281.09;5039310;28;20066;-71
2023/12/02 08:52:13;;;;;;;56.15;7.35;;;;;;;-141.23;100.00;62281.09;5065260;28;20040;-71
2023/12/02 08:54:41;;;;;;;23.30;4.85;;;;;;;-141.23;100.00;62281.09;5042187;28;20467;-71
2023/12/02 08:57:09;;;;;;;19.42;5.15;;;;;;;-141.23;100.00;62281.09;5058640;28;20153;-73
2023/12/02 08:59:36;;;;;;;17.98;5.82;;;;;;;-141.23;100.00;62281.09;5091479;28;20059;-73
2023/12/02 09:02:05;;;;;;;14.85;5.07;;;;;;;-141.23;100.00;62281.09;5058446;28;20043;-73
2023/12/02 09:04:32;;;;;;;34.63;7.97;;;;;;;-141.23;100.00;62281.09;5059012;28;20052;-76
2023/12/02 09:06:58;;;;;;;21.27;4.38;;;;;;;-141.23;100.00;62281.09;5058322;28;20050;-75
2023/12/02 09:09:26;;;;;;;23.65;6.15;;;;;;;-141.23;100.00;62281.09;5047777;28;20049;-74
2023/12/02 09:11:53;;;;;;;27.27;6.68;;;;;;;-141.23;100.00;62281.09;5010746;28;20855;-74
2023/12/02 09:14:18;;;;;;;37.03;10.32;;;;;;;-141.23;100.00;62281.09;5000198;28;20127;-75
2023/12/02 09:16:47;;;;;;;55.85;10.75;;;;;;;-141.23;100.00;62281.09;5020807;28;20042;-77
2023/12/02 09:19:47;;;;;;;39.28;12.43;;;;;;;-141.23;100.00;62281.09;4995679;28;20459;-76
2023/12/02 09:22:48;;;;;;;52.60;11.10;;;;;;;-141.23;100.00;62281.09;5017238;28;20078;-76
2023/12/02 09:25:25;;;;;;;47.25;13.25;;;;;;;-141.23;100.00;62281.09;5030975;28;20479;-74
2023/12/02 09:28:15;;;;;;;53.92;13.27;;;;;;;-141.23;100.00;62281.09;5037806;28;20041;-74
2023/12/02 09:31:06;;;;;;;61.75;16.10;;;;;;;-141.23;100.00;62281.09;5002678;28;20102;-74
2023/12/02 09:33:34;;;;;;;46.05;13.07;;;;;;;-141.23;100.00;62281.09;5032465;28;20438;-75
2023/12/02 09:36:01;;;;;;;61.20;17.50;;;;;;;-141.23;100.00;62281.09;5054368;28;20575;-77
2023/12/02 09:38:28;;;;;;;60.45;19.38;;;;;;;-141.23;100.00;62281.09;5021300;28;20442;-77
2023/12/02 09:41:00;;;;;;;60.95;15.05;;;;;;;-141.23;100.00;62281.09;5089297;27;20050;-76
2023/12/02 09:43:38;;;;;;;37.78;13.18;;;;;;;-141.23;100.00;62281.09;5097356;27;20414;-79
2023/12/02 09:46:22;;;;;;;32.65;12.18;;;;;;;-141.23;100.00;62281.09;5088190;28;20044;-75
2023/12/02 09:49:28;;;;;;;30.52;11.38;;;;;;;-141.23;100.00;62281.09;5079395;28;20156;-75
2023/12/02 09:52:06;;;;;;;27.52;11.85;;;;;;;-141.23;100.00;62281.09;5044524;28;20040;-76
2023/12/02 09:54:38;;;;;;;30.48;11.38;;;;;;;-141.23;100.00;62281.09;5038023;28;20028;-72
2023/12/02 09:57:38;;;;;;;26.63;10.98;;;;;;;-141.23;100.00;62281.09;5094347;28;20047;-75
2023/12/02 10:00:12;;;;;;;26.70;9.68;;;;;;;-141.23;100.00;62281.09;5082076;27;20394;-75
2023/12/02 10:02:53;;;;;;;17.45;8.70;;;;;;;-141.23;100.00;62281.09;5058518;28;20047;-76
2023/12/02 10:05:21;;;;;;;24.35;8.50;;;;;;;-141.23;100.00;62281.09;5057694;28;20140;-76
2023/12/02 10:07:50;;;;;;;23.88;9.45;;;;;;;-141.23;100.00;62281.09;5023254;28;20052;-74
2023/12/02 10:10:29;;;;;;;19.45;10.60;;;;;;;-141.23;100.00;62281.09;5039774;28;20516;-77
2023/12/02 10:13:23;;;;;;;19.45;10.70;;;;;;;-141.23;100.00;62281.09;5040104;28;20053;-77
2023/12/02 10:15:49;;;;;;;19.92;10.93;;;;;;;-141.23;100.00;62281.09;5039357;28;20052;-74
2023/12/02 10:18:17;;;;;;;23.42;11.65;;;;;;;-141.23;100.00;62281.09;5059389;28;20040;-75
2023/12/02 10:20:44;;;;;;;26.13;10.80;;;;;;;-141.23;100.00;62281.09;5096241;28;20043;-75
2023/12/02 10:23:25;;;;;;;30.05;12.63;;;;;;;-141.23;100.00;62281.09;5080550;28;20109;-73
2023/12/02 10:26:08;;;;;;;31.58;11.05;;;;;;;-141.23;100.00;62281.09;5092639;28;20043;-74
2023/12/02 10:28:50;;;;;;;24.23;12.93;;;;;;;-141.23;100.00;62281.09;5095485;28;20499;-72
2023/12/02 10:31:27;;;;;;;19.60;12.10;;;;;;;-141.23;100.00;62281.09;5090421;28;20548;-75
2023/12/02 10:33:54;;;;;;;15.90;11.38;;;;;;;-141.23;100.00;62281.09;5116791;27;20042;-74
2023/12/02 10:36:21;;;;;;;18.75;12.13;;;;;;;-141.23;100.00;62281.09;5110471;27;20049;-74
2023/12/02 10:39:09;;;;;;;17.30;11.85;;;;;;;-141.23;100.00;62281.09;5101461;27;20046;-74
2023/12/02 10:41:51;;;;;;;21.95;12.27;;;;;;;-141.23;100.00;62281.09;5151452;27;20384;-73
2023/12/02 10:44:21;;;;;;;18.60;12.02;;;;;;;-141.23;100.00;62281.09;5101533;27;20039;-72
2023/12/02 10:46:49;;;;;;;16.97;10.90;;;;;;;-141.23;100.00;62281.09;5118490;27;20078;-74
2023/12/02 10:49:15;;;;;;;18.63;12.13;;;;;;;-141.23;100.00;62281.09;5101490;27;20038;-77
2023/12/02 10:51:42;;;;;;;18.55;10.63;;;;;;;-141.23;100.00;62281.09;5114585;27;20424;-70
2023/12/02 10:54:12;;;;;;;17.50;10.82;;;;;;;-141.23;100.00;62281.09;5152555;27;20057;-75
2023/12/02 10:56:39;;;;;;;14.83;9.60;;;;;;;-141.23;100.00;62281.09;5101214;27;20035;-70
2023/12/02 10:59:07;;;;;;;16.08;10.18;;;;;;;-141.23;100.00;62281.09;5097621;27;20297;-75
2023/12/02 11:01:37;;;;;;;17.17;10.90;;;;;;;-141.23;100.00;62281.09;5140226;27;20082;-72
2023/12/02 11:04:33;;;;;;;19.75;12.82;;;;;;;-141.23;100.00;62281.09;5144079;27;20458;-73
2023/12/02 11:07:03;;;;;;;20.27;13.02;;;;;;;-141.23;100.00;62281.09;5132809;27;20494;-70
2023/12/02 11:09:53;;;;;;;24.65;15.02;;;;;;;-141.23;100.00;62281.09;5115275;27;20069;-71